Fillmore, Canada
Current Conditions -  °F | °C
As of 12:00 PM on Tuesday 21 Oct 2014 (Local Time) from CYEN Reporting Station
Few Clouds Few Clouds  
Wind Chill: 64°   Ceiling: Unl
Heat Index: 64°   Visibility: 15mi
Dew Point: 41°   Wind: 12mph
Humidity: 42%   Direction: 100°E
Pressure: 29.68"   Gusts: NA
Location:  49.88°N, 103.43°W
Report Text: CYEN 211800Z 10010KT 15SM FEW250 18/05 A2968 RMK CI1 SLP057
Loading
Personal Weather Stations






























Interactive Weather Map
Tropical Storm Tracking
New forecast layout! Learn more

10-Day Weather Forecast

Advertisements
Track Severe Weather on mobile